Date,TemperatureHighF,TemperatureAvgF,TemperatureLowF,DewpointHighF,DewpointAvgF,DewpointLowF,HumidityHigh,HumidityAvg,HumidityLow,PressureMaxIn,PressureMinIn,WindSpeedMaxMPH,WindSpeedAvgMPH,GustSpeedMaxMPH,PrecipitationSumIn
2012-1-1,47,23,8,13,7,0,81,57,14,0.00,40.00,12,4,14,0.00
2012-1-2,55,30,13,21,15,8,81,59,21,0.00,40.00,6,2,7,0.00
2012-1-3,52,33,20,21,15,7,81,53,15,0.00,40.00,14,4,20,0.00
2012-1-4,54,30,15,18,14,9,83,57,17,0.00,40.00,6,3,9,0.00
2012-1-5,53,32,16,20,16,11,84,58,20,0.00,40.00,14,4,16,0.00
2012-1-6,44,29,16,22,14,4,87,58,19,0.00,40.00,16,4,17,0.00
2012-1-7,32,26,14,28,22,11,95,85,59,0.00,40.00,19,10,25,0.00
2012-1-8,29,21,8,19,15,5,89,77,59,0.00,40.00,13,6,16,0.00
2012-1-9,38,24,12,25,18,9,91,79,58,0.00,40.00,13,4,16,0.00
2012-1-10,44,26,9,26,18,7,91,73,40,0.00,40.00,19,6,26,0.00
2012-1-11,29,22,9,22,12,1,83,65,39,0.00,40.00,18,9,23,0.00
2012-1-12,33,14,0,4,-1,-10,80,56,14,0.00,40.00,16,4,20,0.00
2012-1-13,42,20,3,5,-1,-11,75,48,11,0.00,40.00,15,4,20,0.00
2012-1-14,53,25,9,12,7,3,76,51,13,0.00,40.00,15,4,21,0.00
2012-1-15,50,38,17,8,-3,-13,65,20,7,0.00,40.00,18,7,32,0.00
2012-1-16,39,20,6,14,6,-1,86,56,21,0.00,40.00,21,12,33,0.00
2012-1-17,26,12,-4,6,-4,-11,82,54,20,0.00,40.00,12,3,16,0.00
2012-1-18,37,32,24,29,12,-7,94,51,18,0.00,40.00,19,7,30,0.00
2012-1-19,48,37,30,34,31,24,94,80,45,0.00,40.00,22,3,32,0.00
2012-1-20,40,35,32,34,30,26,93,81,56,0.00,40.00,12,4,16,0.00
2012-1-21,40,33,28,32,30,27,98,89,64,0.00,40.00,31,16,44,0.00
2012-1-22,29,23,14,23,15,10,95,73,54,0.00,40.00,24,9,36,0.00
2012-1-23,34,24,11,27,19,8,95,83,56,0.00,40.00,23,6,31,0.00
2012-1-24,31,24,11,24,19,8,89,79,61,0.00,40.00,12,6,17,0.00
2012-1-25,43,29,15,31,22,12,86,75,59,0.00,40.00,17,5,23,0.00
2012-1-26,39,30,19,33,26,18,96,86,69,0.00,40.00,18,6,33,0.00
2012-1-27,30,23,5,28,15,2,95,70,50,0.00,40.00,18,7,27,0.00
2012-1-28,32,12,-4,13,3,-7,88,68,24,0.00,40.00,13,4,17,0.00
2012-1-29,35,18,5,16,8,0,82,65,36,0.00,40.00,7,4,8,0.00
2012-1-30,46,24,8,23,14,4,87,67,38,0.00,40.00,13,4,18,0.00
2012-1-31,40,20,4,19,11,1,89,72,33,0.00,40.00,15,4,18,0.00
2012-2-1,43,26,8,29,16,5,96,71,34,0.00,40.00,15,5,20,0.00
2012-2-2,32,28,27,28,25,21,96,87,71,0.00,40.00,14,8,17,0.00
2012-2-3,32,23,10,21,15,6,86,72,48,0.00,40.00,11,4,13,0.00
2012-2-4,30,15,1,15,7,-2,88,74,49,0.00,40.00,7,3,9,0.00
2012-2-5,29,14,0,14,6,-4,87,74,48,0.00,40.00,6,2,6,0.00
2012-2-6,35,17,2,17,9,-1,87,71,42,0.00,40.00,6,3,10,0.00
2012-2-7,31,16,-1,14,8,-4,85,70,48,0.00,40.00,12,5,15,0.00
2012-2-8,37,27,16,26,20,11,87,74,53,0.00,40.00,16,5,19,0.00
2012-2-9,37,32,28,29,27,24,87,79,64,0.00,40.00,18,7,22,0.00
2012-2-10,45,34,26,30,27,21,89,77,41,0.00,40.00,8,3,15,0.00
2012-2-11,44,31,18,28,22,15,91,71,46,0.00,40.00,18,6,23,0.00
2012-2-12,33,31,29,32,28,24,95,89,77,0.00,40.00,15,6,19,0.00
2012-2-13,35,28,20,27,23,19,95,82,53,0.00,40.00,8,3,10,0.00
2012-2-14,39,28,20,25,21,15,93,76,43,0.00,40.00,13,4,17,0.00
2012-2-15,36,28,18,26,21,15,90,75,46,0.00,40.00,9,4,13,0.00
2012-2-16,36,25,13,21,17,7,89,73,50,0.00,40.00,15,5,17,0.00
2012-2-17,35,20,7,18,12,4,88,71,44,0.00,40.00,15,5,20,0.00
2012-2-18,37,22,6,21,14,3,89,71,44,0.00,40.00,10,4,13,0.00
2012-2-19,29,23,14,26,16,9,92,75,51,0.00,40.00,23,10,28,0.00
2012-2-20,30,20,7,18,12,5,89,73,45,0.00,40.00,10,3,12,0.00
2012-2-21,34,29,21,33,25,18,95,86,73,0.00,40.00,20,7,22,0.00
2012-2-22,48,42,34,34,27,17,94,58,28,0.00,40.00,27,13,36,0.00
2012-2-23,36,26,22,31,13,2,85,57,33,0.00,40.00,29,14,39,0.00
2012-2-24,37,25,14,15,11,8,78,57,30,0.00,40.00,8,3,12,0.00
2012-2-25,44,26,17,21,12,5,84,59,20,0.00,40.00,31,11,46,0.00
2012-2-26,30,22,17,10,6,-2,74,49,30,0.00,40.00,24,10,30,0.00
2012-2-27,40,32,25,27,9,-2,93,41,27,0.00,40.00,24,14,32,0.00
2012-2-28,28,23,7,27,20,5,96,87,63,0.00,40.00,29,9,37,0.00
2012-2-29,38,23,6,25,17,3,95,80,40,0.00,40.00,24,8,29,0.00
2012-3-1,27,21,13,22,16,10,92,80,58,0.00,40.00,20,5,24,0.00
2012-3-2,23,20,18,18,11,4,90,67,45,0.00,40.00,21,11,30,0.00
2012-3-3,37,27,20,23,16,9,77,65,50,0.00,40.00,16,8,23,0.00
2012-3-4,47,33,21,26,22,16,86,65,40,0.00,40.00,9,3,13,0.00
2012-3-5,55,36,13,22,16,11,90,52,18,0.00,40.00,15,5,22,0.00
2012-3-6,51,41,21,24,15,8,92,41,19,0.00,40.00,28,13,30,0.00
2012-3-7,34,25,20,21,17,8,90,71,49,0.00,40.00,16,11,18,0.00
2012-3-8,43,25,10,18,11,6,84,59,27,0.00,40.00,9,4,13,0.00
2012-3-9,52,29,12,21,14,8,85,57,19,0.00,40.00,8,3,9,0.00
2012-3-10,49,33,14,23,16,-100,85,58,25,0.00,40.00,16,5,19,0.00
2012-3-11,54,38,21,23,16,6,85,49,14,0.00,40.00,14,4,21,0.00
2012-3-12,55,44,27,21,16,12,71,35,21,0.00,40.00,18,6,26,0.00
2012-3-13,54,49,42,21,13,9,34,23,17,0.00,40.00,14,6,24,0.00
2012-3-14,53,47,40,30,22,16,59,39,24,0.00,40.00,15,6,22,0.00
2012-3-15,58,45,32,30,27,22,80,51,25,0.00,40.00,11,4,16,0.00
2012-3-16,57,45,32,33,26,21,73,50,25,0.00,40.00,23,7,26,0.00
2012-3-17,51,45,39,36,30,22,86,56,33,0.00,40.00,33,10,41,0.00
2012-3-18,43,32,24,33,28,22,93,85,60,0.00,40.00,14,6,20,0.00
2012-3-19,30,25,17,23,17,10,94,73,43,0.00,40.00,19,8,30,0.00
2012-3-20,37,25,12,23,14,-100,89,68,45,0.00,40.00,10,4,12,0.00
2012-3-21,52,38,29,28,25,21,76,60,33,0.00,40.00,11,4,15,0.00
2012-3-22,63,39,22,27,20,-100,87,57,13,0.00,40.00,14,-4,18,0.00
2012-3-23,61,50,35,25,20,9,66,34,12,0.00,40.00,21,7,28,0.00
2012-3-24,63,48,33,28,22,14,70,40,15,0.00,40.00,20,7,24,0.00
2012-3-25,64,52,32,29,20,12,70,32,14,0.00,40.00,19,8,26,0.00
2012-3-26,56,39,29,31,21,13,86,52,18,0.00,40.00,17,6,38,0.00
2012-3-27,52,39,23,26,19,7,85,49,15,0.00,40.00,15,6,21,0.00
2012-3-28,58,43,29,36,23,14,90,51,20,0.00,40.00,14,7,23,0.00
2012-3-29,55,41,28,36,31,20,92,71,27,0.00,40.00,16,6,25,0.00
2012-3-30,61,45,31,33,28,26,83,57,28,0.00,40.00,18,4,25,0.00
2012-3-31,68,55,38,32,23,15,73,35,12,0.00,40.00,22,9,34,0.00
2012-4-1,59,43,27,30,23,16,89,52,19,0.00,40.00,23,14,36,0.00
2012-4-2,43,38,20,22,20,11,76,50,38,0.00,40.00,18,8,25,0.00
2012-4-3,54,37,21,28,24,17,85,60,32,0.00,40.00,17,5,22,0.00
2012-4-4,62,47,29,29,19,10,83,43,13,0.00,40.00,19,6,32,0.00
2012-4-5,55,49,35,22,13,-1,58,25,12,0.00,40.00,22,12,35,0.00
2012-4-6,39,29,20,26,18,7,94,66,31,0.00,40.00,26,12,36,0.00
2012-4-7,54,32,11,17,10,-5,86,49,8,0.00,40.00,16,5,19,0.00
2012-4-8,64,44,20,21,9,-7,71,34,5,0.00,40.00,17,4,20,0.00
2012-4-9,67,48,24,22,11,-1,66,32,7,0.00,40.00,17,5,24,0.00
2012-4-10,70,53,28,25,14,5,69,29,7,0.00,40.00,18,5,26,0.00
2012-4-11,66,48,32,36,20,11,88,40,13,0.00,40.00,29,11,43,0.00
2012-4-12,41,35,27,34,31,24,91,85,64,0.00,40.00,25,7,29,0.00
2012-4-13,45,34,23,32,26,17,94,73,35,0.00,40.00,27,6,39,0.00
2012-4-14,42,35,31,35,30,-100,94,83,62,0.00,40.00,14,5,19,0.00
2012-4-15,45,39,30,30,22,12,87,54,26,0.00,40.00,25,12,33,0.00
2012-4-16,51,42,28,27,20,13,72,43,22,0.00,40.00,21,8,30,0.00
2012-4-17,52,41,31,38,29,22,92,63,31,0.00,40.00,17,5,20,0.00
2012-4-18,49,42,35,39,34,29,83,73,52,0.00,40.00,19,6,23,0.00
2012-4-19,52,41,29,38,31,27,93,72,41,0.00,40.00,19,6,24,0.00
2012-4-20,61,46,28,38,31,25,90,60,30,0.00,40.00,19,6,24,0.00
2012-4-21,70,52,30,35,26,16,86,46,12,0.00,40.00,17,6,21,0.00
2012-4-22,75,57,31,34,27,20,80,39,13,0.00,40.00,14,5,21,0.00
2012-4-23,78,60,37,35,29,18,75,37,10,0.00,40.00,20,5,25,0.00
2012-4-24,74,60,40,34,25,11,70,32,9,0.00,40.00,15,6,23,0.00
2012-4-25,66,56,45,36,31,22,62,39,25,0.00,40.00,22,5,28,0.00
2012-4-26,67,54,39,41,35,26,82,49,20,0.00,40.00,22,10,36,0.00
2012-4-27,39,36,32,33,25,17,93,67,45,0.00,40.00,25,15,36,0.00
2012-4-28,44,35,21,21,13,-100,79,44,16,0.00,40.00,20,7,27,0.00
2012-4-29,53,41,29,28,23,19,72,50,31,0.00,40.00,23,8,28,0.00
2012-4-30,64,48,27,31,22,15,84,44,14,0.00,40.00,18,6,28,0.00
2012-5-1,61,51,40,40,34,28,90,55,28,0.00,40.00,16,7,20,0.00
2012-5-2,62,50,38,43,32,19,93,55,18,0.00,40.00,22,10,28,0.00
2012-5-3,66,53,38,38,31,27,79,48,23,0.00,40.00,17,7,34,0.00
2012-5-4,65,52,35,39,33,23,84,52,21,0.00,40.00,22,7,26,0.00
2012-5-5,49,42,33,36,20,-100,80,47,12,0.00,40.00,22,13,31,0.00
2012-5-6,53,39,21,22,16,7,77,44,17,0.00,40.00,18,6,24,0.00
2012-5-7,60,45,27,23,19,11,72,39,15,0.00,40.00,17,6,30,0.00
2012-5-8,65,49,26,26,20,10,75,37,12,0.00,40.00,15,6,18,0.00
2012-5-9,71,54,30,30,23,12,77,37,10,0.00,40.00,18,5,26,0.00
2012-5-10,63,51,32,31,25,18,72,39,17,0.00,40.00,26,11,35,0.00
2012-5-11,62,49,33,24,15,1,66,30,9,0.00,40.00,18,7,21,0.00
2012-5-12,62,50,28,19,14,-100,69,29,12,0.00,40.00,21,9,25,0.00
2012-5-13,67,54,30,29,22,13,66,32,13,0.00,40.00,15,5,28,0.00
2012-5-14,75,60,33,30,22,9,74,29,8,0.00,40.00,12,5,19,0.00
2012-5-15,79,62,37,33,18,9,66,25,7,0.00,40.00,20,6,28,0.00
2012-5-16,74,59,44,35,28,20,56,32,13,0.00,40.00,22,6,31,0.00
2012-5-17,75,57,34,39,30,21,79,43,13,0.00,40.00,25,7,50,0.00
2012-5-18,58,46,38,41,37,33,85,71,42,0.00,40.00,20,6,28,0.00
2012-5-19,61,47,30,38,30,-100,92,59,25,0.00,40.00,19,7,24,0.00
2012-5-20,40,35,32,31,28,26,80,75,65,0.00,40.00,6,2,7,0.00
2012-5-21,81,70,38,31,23,18,70,20,9,0.00,40.00,16,6,24,0.00
2012-5-22,73,63,41,35,28,17,58,28,14,0.00,40.00,22,10,29,0.00
2012-5-23,54,49,38,37,27,18,73,43,27,0.00,40.00,26,12,34,0.00
2012-5-24,58,44,31,34,24,11,91,53,16,0.00,40.00,17,6,25,0.00
2012-5-25,58,48,36,45,36,21,77,64,42,0.00,40.00,14,7,20,0.00
2012-5-26,58,44,37,38,30,16,88,61,27,0.00,40.00,17,7,31,0.00
2012-5-27,47,41,35,35,30,24,87,67,41,0.00,40.00,19,8,26,0.00
2012-5-28,60,46,27,34,27,18,89,53,22,0.00,40.00,15,5,23,0.00
2012-5-29,71,52,30,33,26,17,85,45,13,0.00,40.00,18,5,29,0.00
2012-5-30,68,54,32,34,29,20,78,43,16,0.00,40.00,17,7,23,0.00
2012-5-31,71,56,35,38,34,29,81,48,24,0.00,40.00,22,7,26,0.00
2012-6-1,76,60,38,41,35,25,82,46,15,0.00,40.00,15,5,20,0.00
2012-6-2,81,63,42,40,34,-100,75,40,14,0.00,40.00,19,5,27,0.00
2012-6-3,81,65,44,42,37,33,74,40,18,0.00,40.00,17,6,23,0.00
2012-6-4,85,64,47,43,32,18,70,38,10,0.00,40.00,20,5,25,0.00
2012-6-5,74,52,35,39,29,22,78,47,14,0.00,40.00,35,14,51,0.00
2012-6-6,56,42,27,29,25,19,84,55,31,0.00,40.00,18,7,21,0.00
2012-6-7,68,49,27,28,24,5,82,45,10,0.00,40.00,17,6,20,0.00
2012-6-8,80,76,72,18,16,14,12,10,8,0.00,40.00,22,12,37,0.00
2012-6-9,71,53,39,41,28,12,69,39,15,0.00,40.00,33,17,41,0.00
2012-6-10,56,44,31,25,21,18,69,42,22,0.00,40.00,22,8,29,0.00
2012-6-11,68,50,27,27,22,14,77,40,13,0.00,40.00,17,5,23,0.00
2012-6-12,75,60,35,30,24,17,66,31,11,0.00,40.00,18,6,26,0.00
2012-6-13,76,62,34,35,29,22,71,33,14,0.00,40.00,20,9,28,0.00
2012-6-14,76,61,40,37,34,30,73,40,20,0.00,40.00,21,8,25,0.00
2012-6-15,75,59,39,38,35,31,75,44,21,0.00,40.00,21,7,28,0.00
2012-6-16,76,60,39,37,32,-100,76,41,17,0.00,40.00,14,6,20,0.00
2012-6-17,85,66,38,37,29,23,71,32,11,0.00,40.00,22,8,31,0.00
2012-6-18,85,73,52,37,29,12,49,21,8,0.00,40.00,20,9,37,0.00
2012-6-19,67,59,46,37,28,20,64,33,16,0.00,40.00,22,12,35,0.00
2012-6-20,67,54,33,29,22,7,73,33,10,0.00,40.00,14,6,19,0.00
2012-6-21,86,70,40,33,25,18,64,23,8,0.00,40.00,12,4,17,0.00
2012-6-22,85,71,45,34,22,13,55,21,7,0.00,40.00,18,7,30,0.00
2012-6-23,88,72,53,27,15,4,33,13,4,0.00,40.00,24,8,31,0.00
2012-6-24,87,72,45,35,25,15,43,19,10,0.00,40.00,19,5,28,0.00
2012-6-25,87,73,51,41,35,27,55,28,14,0.00,40.00,17,6,30,0.00
2012-6-26,80,73,55,34,21,12,33,15,7,0.00,40.00,23,11,31,0.00
2012-6-27,82,64,36,32,26,12,70,29,8,0.00,40.00,23,7,29,0.00
2012-6-28,87,69,42,36,31,27,62,29,11,0.00,40.00,17,6,28,0.00
2012-6-29,86,72,50,40,31,25,56,26,10,0.00,40.00,15,6,27,0.00
2012-6-30,88,73,42,36,24,11,68,21,5,0.00,40.00,13,5,19,0.00
2012-7-1,87,70,41,34,27,19,60,24,8,0.00,40.00,21,7,30,0.00
2012-7-2,86,77,54,38,29,21,51,20,9,0.00,40.00,17,7,26,0.00
2012-7-3,87,76,47,38,26,18,63,19,8,0.00,40.00,17,7,35,0.00
2012-7-4,84,70,42,41,33,25,61,28,14,0.00,40.00,16,6,22,0.00
2012-7-5,68,62,58,57,52,39,89,72,34,0.00,40.00,17,5,26,0.00
2012-7-6,79,64,54,57,51,43,90,67,30,0.00,40.00,15,5,19,0.00
2012-7-7,61,58,55,54,52,49,83,80,76,0.00,40.00,6,3,8,0.00
2012-7-8,86,73,48,51,39,28,86,36,12,0.00,40.00,11,4,16,0.00
2012-7-9,88,70,47,46,38,27,77,39,12,0.00,40.00,13,4,18,0.00
2012-7-10,90,72,49,44,38,26,72,35,10,0.00,40.00,19,5,25,0.00
2012-7-11,91,71,51,44,38,23,70,35,9,0.00,40.00,27,6,38,0.00
2012-7-12,91,73,50,46,40,32,72,35,13,0.00,40.00,18,6,29,0.00
2012-7-13,84,68,56,52,44,40,62,42,21,0.00,40.00,14,4,25,0.00
2012-7-14,71,66,62,58,51,47,82,59,46,0.00,40.00,22,9,33,0.00
2012-7-15,69,64,52,55,51,48,89,63,46,0.00,40.00,17,7,20,0.00
2012-7-16,79,65,48,53,45,35,89,54,20,0.00,40.00,20,6,32,0.00
2012-7-17,81,68,51,51,40,30,86,42,15,0.00,40.00,18,6,30,0.00
2012-7-18,83,63,46,44,38,30,74,47,15,0.00,40.00,20,6,25,0.00
2012-7-19,85,67,46,43,36,24,72,37,11,0.00,40.00,14,4,21,0.00
2012-7-20,83,69,55,51,45,39,72,45,21,0.00,40.00,25,6,34,0.00
2012-7-21,85,71,56,52,46,36,80,45,19,0.00,40.00,21,6,28,0.00
2012-7-22,84,76,61,55,46,41,74,36,22,0.00,40.00,28,7,38,0.00
2012-7-23,81,64,54,55,51,45,87,66,29,0.00,40.00,8,4,16,0.00
2012-7-24,78,63,52,58,52,46,91,70,32,0.00,40.00,22,6,29,0.00
2012-7-25,81,69,49,51,43,34,86,44,18,0.00,40.00,16,6,22,0.00
2012-7-26,88,76,49,42,35,30,69,28,13,0.00,40.00,12,4,17,0.00
2012-7-27,86,72,55,46,42,34,61,36,16,0.00,40.00,24,10,29,0.00
2012-7-28,84,71,58,44,41,36,57,35,18,0.00,40.00,21,6,26,0.00
2012-7-29,86,73,59,47,40,18,54,34,8,0.00,40.00,19,7,23,0.00
2012-7-30,87,69,50,47,42,19,75,43,8,0.00,40.00,22,6,27,0.00
2012-7-31,84,68,56,58,46,40,70,47,22,0.00,40.00,13,4,21,0.00
2012-8-1,83,71,53,51,44,32,80,43,15,0.00,40.00,22,7,27,0.00
2012-8-2,83,68,48,44,34,18,68,34,9,0.00,40.00,18,7,26,0.00
2012-8-3,80,65,40,32,27,22,62,28,11,0.00,40.00,25,9,30,0.00
2012-8-4,84,72,42,36,28,22,66,25,10,0.00,40.00,18,8,25,0.00
2012-8-5,88,74,44,42,35,30,65,26,12,0.00,40.00,15,6,24,0.00
2012-8-6,84,72,57,49,38,22,68,33,10,0.00,40.00,18,6,25,0.00
2012-8-7,89,78,53,36,28,19,41,17,7,0.00,40.00,12,5,15,0.00
2012-8-8,92,72,45,41,33,22,66,29,8,0.00,40.00,19,6,27,0.00
2012-8-9,86,75,62,47,40,31,52,30,14,0.00,40.00,20,7,26,0.00
2012-8-10,83,69,52,52,44,38,72,44,20,0.00,40.00,25,5,40,0.00
2012-8-11,83,67,52,54,43,-100,89,51,13,0.00,40.00,18,6,23,0.00
2012-8-12,86,73,48,37,30,22,62,26,9,0.00,40.00,16,5,18,0.00
2012-8-13,82,69,57,48,42,34,55,39,23,0.00,40.00,19,5,24,0.00
2012-8-14,82,75,60,49,38,32,65,29,17,0.00,40.00,17,9,22,0.00
2012-8-15,85,74,45,43,38,30,69,30,13,0.00,40.00,19,7,23,0.00
2012-8-16,86,70,47,42,37,32,71,36,14,0.00,40.00,15,6,22,0.00
2012-8-17,84,76,52,40,35,30,62,26,14,0.00,40.00,19,10,24,0.00
2012-8-18,84,69,44,38,31,24,72,31,10,0.00,40.00,18,7,24,0.00
2012-8-19,83,74,53,43,33,25,50,24,11,0.00,40.00,20,8,27,0.00
2012-8-20,79,72,58,43,34,22,39,26,12,0.00,40.00,19,10,27,0.00
2012-8-21,83,73,42,41,35,26,66,27,12,0.00,40.00,18,7,26,0.00
2012-8-22,77,67,56,52,45,40,72,46,30,0.00,40.00,14,4,20,0.00
2012-8-23,80,66,50,50,43,32,85,50,18,0.00,40.00,17,6,23,0.00
2012-8-24,80,64,44,44,35,27,74,40,14,0.00,40.00,26,8,30,0.00
2012-8-25,81,64,41,42,37,32,71,40,21,0.00,40.00,22,7,28,0.00
2012-8-26,85,65,48,42,39,31,71,44,14,0.00,40.00,13,5,25,0.00
2012-8-27,85,68,48,51,43,38,80,46,18,0.00,40.00,22,6,27,0.00
2012-8-28,88,71,51,47,41,32,77,42,14,0.00,40.00,14,5,20,0.00
2012-8-29,86,77,55,45,35,25,68,24,12,0.00,40.00,16,7,25,0.00
2012-8-30,81,70,57,53,43,36,83,41,23,0.00,40.00,21,6,24,0.00
2012-8-31,77,60,49,54,48,38,91,68,25,0.00,40.00,18,4,30,0.00
2012-9-1,69,62,52,54,50,42,91,68,40,0.00,40.00,19,8,27,0.00
2012-9-2,76,60,40,50,44,29,96,63,17,0.00,40.00,16,5,23,0.00
2012-9-3,78,62,44,45,37,25,87,48,14,0.00,40.00,19,5,24,0.00
2012-9-4,78,64,41,39,26,15,79,31,9,0.00,40.00,19,7,25,0.00
2012-9-5,80,59,35,33,26,15,74,37,9,0.00,40.00,18,6,23,0.00
2012-9-6,79,65,42,44,35,29,66,35,17,0.00,40.00,23,7,33,0.00
2012-9-7,74,57,37,41,31,15,81,44,10,0.00,40.00,18,5,21,0.00
2012-9-8,72,48,35,33,30,26,77,52,18,0.00,40.00,7,2,8,0.00
2012-9-9,81,52,36,36,31,27,76,48,14,0.00,40.00,9,3,12,0.00
2012-9-10,76,63,54,49,41,36,71,46,27,0.00,40.00,28,7,38,0.00
2012-9-11,68,58,47,49,44,33,87,62,28,0.00,40.00,19,6,23,0.00
2012-9-12,70,60,42,38,19,12,75,24,10,0.00,40.00,16,9,21,0.00
2012-9-13,77,54,27,29,20,6,70,34,7,0.00,40.00,17,5,20,0.00
2012-9-14,77,63,34,28,22,18,68,26,10,0.00,40.00,17,7,22,0.00
2012-9-15,78,60,34,28,23,17,71,31,9,0.00,40.00,20,7,28,0.00
2012-9-16,77,58,34,30,24,19,70,34,11,0.00,40.00,19,6,27,0.00
2012-9-17,70,60,39,29,27,25,57,30,19,0.00,40.00,15,7,23,0.00
2012-9-18,72,60,34,30,21,16,73,28,11,0.00,40.00,17,8,20,0.00
2012-9-19,74,59,31,23,19,16,66,27,11,0.00,40.00,16,7,22,0.00
2012-9-20,75,62,34,23,18,14,57,21,10,0.00,40.00,18,7,22,0.00
2012-9-21,77,57,31,25,22,19,67,31,11,0.00,40.00,15,6,22,0.00
2012-9-22,79,57,31,26,20,-100,69,31,9,0.00,40.00,16,5,21,0.00
2012-9-23,74,58,42,38,29,25,55,35,19,0.00,40.00,16,6,22,0.00
2012-9-24,63,56,47,45,41,34,76,58,33,0.00,40.00,24,10,28,0.00
2012-9-25,52,49,46,46,42,35,92,78,62,0.00,40.00,13,4,16,0.00
2012-9-26,63,52,43,49,45,42,95,79,49,0.00,40.00,22,5,25,0.00
2012-9-27,66,57,40,49,43,39,97,62,39,0.00,40.00,15,5,18,0.00
2012-9-28,70,58,42,43,34,24,86,45,17,0.00,40.00,14,5,19,0.00
2012-9-29,70,54,33,35,30,27,86,49,19,0.00,40.00,15,6,22,0.00
2012-9-30,70,56,34,38,30,23,87,46,16,0.00,40.00,18,7,22,0.00
2012-10-1,69,48,33,36,31,28,83,57,23,0.00,40.00,8,2,9,0.00
2012-10-2,71,53,32,34,27,21,83,46,15,0.00,40.00,23,9,29,0.00
2012-10-3,63,49,31,34,16,1,79,36,9,0.00,40.00,25,9,33,0.00
2012-10-4,64,44,24,25,17,12,69,38,13,0.00,40.00,21,5,31,0.00
2012-10-5,54,44,30,23,11,0,50,29,11,0.00,40.00,20,8,31,0.00
2012-10-6,52,43,29,14,10,1,53,27,12,0.00,40.00,18,8,25,0.00
2012-10-7,54,37,13,13,7,2,73,34,13,0.00,40.00,19,6,24,0.00
2012-10-8,63,50,17,17,12,4,71,26,11,0.00,40.00,19,7,25,0.00
2012-10-9,65,48,24,22,17,13,71,34,13,0.00,40.00,17,6,23,0.00
2012-10-10,68,49,29,28,23,18,68,41,20,0.00,40.00,14,6,22,0.00
2012-10-11,70,54,36,36,31,25,82,47,19,0.00,40.00,16,5,23,0.00
2012-10-12,55,46,37,43,35,27,82,65,52,0.00,40.00,14,4,18,0.00
2012-10-13,49,42,37,41,37,35,92,82,65,0.00,40.00,14,4,19,0.00
2012-10-14,57,43,28,39,34,28,96,73,41,0.00,40.00,18,6,22,0.00
2012-10-15,64,50,29,34,29,26,90,51,23,0.00,40.00,21,7,28,0.00
2012-10-16,65,51,34,43,34,17,82,55,29,0.00,40.00,25,10,37,0.00
2012-10-17,45,42,38,21,13,7,46,30,22,0.00,40.00,24,15,33,0.00
2012-10-18,56,39,20,19,14,7,74,40,14,0.00,40.00,16,6,22,0.00
2012-10-19,63,50,27,26,20,15,76,34,15,0.00,40.00,20,7,23,0.00
2012-10-20,69,52,32,29,22,15,71,37,14,0.00,40.00,13,5,23,0.00
2012-10-21,60,48,29,40,31,21,75,55,30,0.00,40.00,12,4,23,0.00
2012-10-22,60,52,45,41,36,32,73,56,35,0.00,40.00,22,7,29,0.00
2012-10-23,47,36,31,37,32,28,95,85,55,0.00,40.00,17,7,23,0.00
2012-10-24,36,31,27,29,26,23,94,84,59,0.00,40.00,15,6,20,0.00
2012-10-25,32,27,21,27,23,18,95,87,64,0.00,40.00,18,6,24,0.00
2012-10-26,36,23,11,28,18,9,95,84,54,0.00,40.00,9,3,10,0.00
2012-10-27,47,33,17,27,22,14,89,65,34,0.00,40.00,14,4,18,0.00
2012-10-28,57,43,34,34,30,27,84,62,38,0.00,40.00,12,3,20,0.00
2012-10-29,61,42,29,36,28,24,91,64,24,0.00,40.00,17,5,22,0.00
2012-10-30,65,43,26,33,26,21,89,57,19,0.00,40.00,14,4,20,0.00
2012-10-31,67,46,26,32,24,16,85,50,14,0.00,40.00,17,4,18,0.00
2012-11-1,61,47,36,28,22,9,60,41,12,0.00,40.00,15,5,22,0.00
2012-11-2,54,42,29,30,26,22,82,56,28,0.00,40.00,13,4,18,0.00
2012-11-3,54,38,21,29,23,18,88,60,28,0.00,40.00,17,5,19,0.00
2012-11-4,57,41,23,29,24,19,85,57,27,0.00,40.00,15,4,18,0.00
2012-11-5,58,40,25,32,28,21,88,65,35,0.00,40.00,14,4,23,0.00
2012-11-6,62,40,24,32,26,21,89,61,26,0.00,40.00,12,4,16,0.00
2012-11-7,64,41,22,28,22,18,86,55,18,0.00,40.00,15,4,22,0.00
2012-11-8,61,50,31,31,20,13,69,33,17,0.00,40.00,17,7,31,0.00
2012-11-9,51,33,25,35,28,21,96,82,44,0.00,40.00,17,10,33,0.00
2012-11-10,25,22,16,23,18,12,94,85,65,0.00,40.00,18,8,24,0.00
2012-11-11,23,17,2,18,12,-2,92,80,59,0.00,40.00,24,10,33,0.00
2012-11-12,25,12,-5,17,7,-9,88,77,62,0.00,40.00,7,4,8,0.00
2012-11-13,36,22,8,23,16,5,90,78,54,0.00,40.00,6,3,7,0.00
2012-11-14,45,27,15,30,20,-100,91,77,45,0.00,40.00,5,3,7,0.00
2012-11-15,44,26,12,27,20,10,92,79,50,0.00,40.00,5,3,6,0.00
2012-11-16,49,36,21,31,25,15,89,67,28,0.00,40.00,19,4,26,0.00
2012-11-17,41,36,29,37,34,28,95,90,81,0.00,40.00,9,3,11,0.00
2012-11-18,42,37,33,38,34,31,95,90,81,0.00,40.00,8,3,13,0.00
2012-11-19,50,36,27,38,30,25,97,80,44,0.00,40.00,10,3,12,0.00
2012-11-20,56,41,24,32,26,22,91,59,29,0.00,40.00,16,5,23,0.00
2012-11-21,58,44,30,29,24,19,78,47,23,0.00,40.00,18,6,26,0.00
2012-11-22,42,36,23,32,19,11,73,51,29,0.00,40.00,20,9,27,0.00
2012-11-23,52,30,16,22,17,13,85,63,24,0.00,40.00,5,2,7,0.00
2012-11-24,55,33,19,26,18,14,86,60,19,0.00,40.00,16,4,18,0.00
2012-11-25,47,32,18,26,19,13,82,61,26,0.00,40.00,19,6,24,0.00
2012-11-26,36,24,17,25,18,14,89,80,56,0.00,40.00,5,3,9,0.00
2012-11-27,54,30,13,21,15,9,86,60,16,0.00,40.00,6,3,8,0.00
2012-11-28,55,38,19,22,17,12,81,47,19,0.00,40.00,15,4,22,0.00
2012-11-29,50,39,26,29,24,19,78,56,36,0.00,40.00,15,5,21,0.00
2012-11-30,49,42,32,37,30,26,91,63,45,0.00,40.00,27,7,30,0.00
2012-12-1,48,39,31,39,33,28,95,81,58,0.00,40.00,7,3,10,0.00
2012-12-2,49,41,33,36,29,25,92,63,42,0.00,40.00,35,13,45,0.00
2012-12-3,36,28,18,28,22,15,90,78,62,0.00,40.00,12,4,16,0.00
2012-12-4,42,32,16,35,26,14,90,80,64,0.00,40.00,7,3,11,0.00
2012-12-5,45,39,34,37,34,31,94,82,59,0.00,40.00,15,4,19,0.00
2012-12-6,44,34,30,39,29,-100,98,85,57,0.00,40.00,17,3,21,0.00
2012-12-7,39,31,23,30,20,15,87,65,44,0.00,40.00,18,9,25,0.00
2012-12-8,37,27,18,22,18,13,90,69,38,0.00,40.00,23,11,28,0.00
2012-12-9,22,14,6,15,9,1,90,80,53,0.00,40.00,13,5,19,0.00
2012-12-10,29,24,4,23,18,1,89,76,66,0.00,40.00,25,13,36,0.00
2012-12-11,36,28,23,25,22,18,83,75,65,0.00,40.00,13,5,17,0.00
2012-12-12,41,35,29,21,18,13,70,50,32,0.00,40.00,17,5,21,0.00
2012-12-13,39,34,31,26,19,15,82,53,37,0.00,40.00,18,9,22,0.00
2012-12-14,40,33,26,29,23,16,93,68,48,0.00,40.00,14,6,17,0.00
2012-12-15,31,27,24,28,24,21,95,90,81,0.00,40.00,13,7,16,0.00
2012-12-16,29,24,21,23,20,15,93,84,66,0.00,40.00,13,4,24,0.00
2012-12-17,41,32,26,29,24,19,96,75,39,0.00,40.00,26,9,36,0.00
2012-12-18,28,22,15,24,19,9,94,89,79,0.00,40.00,9,5,13,0.00
2012-12-19,20,9,-5,10,2,-10,87,75,51,0.00,40.00,12,5,16,0.00
2012-12-20,26,9,-8,11,1,-12,84,72,43,0.00,40.00,7,3,9,0.00
2012-12-21,40,22,5,13,7,-1,82,56,23,0.00,40.00,12,4,18,0.00
2012-12-22,43,29,8,11,5,-7,77,41,11,0.00,40.00,21,7,41,0.00
2012-12-23,39,31,22,29,21,10,93,67,31,0.00,40.00,19,5,24,0.00
2012-12-24,32,26,19,30,22,11,94,83,68,0.00,40.00,25,9,34,0.00
2012-12-25,30,19,11,19,11,8,85,72,41,0.00,40.00,15,5,17,0.00
2012-12-26,25,21,13,21,17,10,93,85,75,0.00,40.00,15,3,21,0.00
2012-12-27,23,20,17,20,16,12,93,83,69,0.00,40.00,14,9,21,0.00
2012-12-28,24,17,3,16,11,-1,86,78,65,0.00,40.00,15,7,18,0.00
2012-12-29,31,10,-3,11,4,-6,87,75,38,0.00,40.00,9,3,11,0.00
2012-12-30,10,7,5,5,3,1,85,83,81,0.00,40.00,6,2,7,0.00
2012-12-31,21,8,-3,10,3,-6,85,79,61,0.00,40.00,17,6,24,0.00
2013-1-1,20,9,-4,11,4,-7,86,79,62,0.00,40.00,14,4,19,0.00